Time;durP1;ratioP1;P1;durP2;ratioP2;P2;SDS_P1;SDS_P2;PMS_P1;PMS_P2;Temp;Humidity;BMP_temperature;BMP_pressure;BME280_temperature;BME280_humidity;BME280_pressure;Samples;Min_cycle;Max_cycle;Signal;HPM_P1;HPM_P2
2022/01/06 00:00:53;;;;;;;;;;;;;;;19.89;48.13;99941.63;2073594;28;19909;-61
2022/01/06 00:01:53;;;;;;;;;;;;;;;19.89;47.98;99943.47;2074964;28;20223;-62
2022/01/06 00:02:54;;;;;;;;;;;;;;;19.89;48.01;99943.47;2075744;28;19917;-62
2022/01/06 00:03:55;;;;;;;;;;;;;;;19.88;47.89;99939.88;2071406;28;19917;-61
2022/01/06 00:04:55;;;;;;;;;;;;;;;19.88;48.02;99939.03;2074028;28;20023;-61
2022/01/06 00:05:56;;;;;;;;;;;;;;;19.87;48.08;99938.16;2069422;28;20228;-61
2022/01/06 00:06:56;;;;;;;;;;;;;;;19.86;47.94;99930.13;2072662;28;19925;-62
2022/01/06 00:07:56;;;;;;;;;;;;;;;19.87;48.03;99943.63;2072510;28;20341;-61
2022/01/06 00:08:59;;;;;;;;;;;;;;;19.86;48.16;99933.69;2069641;28;20611;-61
2022/01/06 00:09:59;;;;;;;;;;;;;;;19.86;48.19;99939.16;2065810;28;19925;-62
2022/01/06 00:11:00;;;;;;;;;;;;;;;19.85;48.08;99933.88;2062372;28;19917;-61
2022/01/06 00:12:00;;;;;;;;;;;;;;;19.84;48.11;99932.16;2074939;28;19917;-61
2022/01/06 00:14:25;;;;;;;;;;;;;;;19.84;48.03;99937.63;2077958;28;19917;-61
2022/01/06 00:23:04;;;;;;;;;;;;;;;19.84;48.15;99933.03;2079259;28;19916;-61
2022/01/06 00:23:52;;;;;;;;;;;;;;;19.85;48.09;99939.34;2071913;28;19917;-61
2022/01/06 00:24:52;;;;;;;;;;;;;;;19.85;48.08;99928.41;2076989;28;20019;-61
2022/01/06 00:25:53;;;;;;;;;;;;;;;19.85;48.12;99928.41;2077564;28;19908;-62
2022/01/06 00:26:54;;;;;;;;;;;;;;;19.85;48.10;99928.41;2076046;28;19908;-63
2022/01/06 00:27:54;;;;;;;;;;;;;;;19.84;48.15;99930.28;2078874;28;19915;-62
2022/01/06 00:28:54;;;;;;;;;;;;;;;19.83;48.17;99924.97;2085981;28;20370;-62
2022/01/06 00:29:55;;;;;;;;;;;;;;;19.81;48.05;99930.59;2076603;28;19920;-62
2022/01/06 00:30:55;;;;;;;;;;;;;;;19.82;48.14;99934.16;2077198;28;19920;-61
2022/01/06 00:31:55;;;;;;;;;;;;;;;19.80;48.15;99930.75;2069857;28;19932;-61
2022/01/06 00:32:56;;;;;;;;;;;;;;;19.79;48.16;99935.34;2077968;28;19924;-61
2022/01/06 00:33:56;;;;;;;;;;;;;;;19.79;48.07;99935.34;2078494;28;19952;-61
2022/01/06 00:34:56;;;;;;;;;;;;;;;19.78;48.19;99938.25;2077097;28;19958;-61
2022/01/06 00:35:57;;;;;;;;;;;;;;;19.78;48.15;99933.66;2073464;28;19949;-61
2022/01/06 00:36:57;;;;;;;;;;;;;;;19.78;48.01;99938.25;2077815;28;20554;-60
2022/01/06 00:37:57;;;;;;;;;;;;;;;19.77;48.15;99944.72;2078928;28;20336;-61
2022/01/06 00:38:58;;;;;;;;;;;;;;;19.76;48.22;99934.81;2075132;28;20395;-61
2022/01/06 00:39:58;;;;;;;;;;;;;;;19.76;48.18;99932.09;2079277;28;19921;-62
2022/01/06 00:40:59;;;;;;;;;;;;;;;19.76;48.17;99935.69;2078880;28;20694;-62
2022/01/06 00:42:00;;;;;;;;;;;;;;;19.76;48.24;99938.41;2077977;28;20004;-61
2022/01/06 00:43:02;;;;;;;;;;;;;;;19.76;48.29;99940.28;2076636;28;19909;-62
2022/01/06 00:44:03;;;;;;;;;;;;;;;19.75;48.26;99936.69;2075565;28;19915;-62
2022/01/06 00:45:04;;;;;;;;;;;;;;;19.76;48.44;99937.56;2072756;28;19912;-62
2022/01/06 00:46:04;;;;;;;;;;;;;;;19.75;48.23;99933.13;2076442;28;20734;-63
2022/01/06 00:47:05;;;;;;;;;;;;;;;19.74;48.25;99936.84;2072206;28;19921;-62
2022/01/06 00:48:07;;;;;;;;;;;;;;;19.73;48.21;99936.00;2075746;28;19949;-62
2022/01/06 00:49:08;;;;;;;;;;;;;;;19.73;48.25;99930.53;2077655;28;20335;-62
2022/01/06 00:50:08;;;;;;;;;;;;;;;19.73;48.40;99946.09;2072732;28;20237;-62
2022/01/06 00:51:09;;;;;;;;;;;;;;;19.73;48.32;99940.63;2077988;28;19958;-61
2022/01/06 00:52:09;;;;;;;;;;;;;;;19.72;48.35;99938.88;2081302;28;20027;-61
2022/01/06 00:53:10;;;;;;;;;;;;;;;19.72;48.22;99944.34;2078818;28;20246;-61
2022/01/06 00:54:10;;;;;;;;;;;;;;;19.70;48.29;99937.19;2075769;28;20012;-61
2022/01/06 00:55:10;;;;;;;;;;;;;;;19.72;48.29;99949.81;2066087;28;19917;-61
2022/01/06 00:56:11;;;;;;;;;;;;;;;19.70;48.40;99941.78;2067444;28;20793;-60
2022/01/06 00:57:12;;;;;;;;;;;;;;;19.70;48.28;99945.38;2074678;28;20114;-62
2022/01/06 00:58:12;;;;;;;;;;;;;;;19.73;48.36;99951.56;2073406;28;19924;-61
2022/01/06 00:59:12;;;;;;;;;;;;;;;19.72;48.24;99945.22;2072017;28;19921;-62
2022/01/06 01:00:13;;;;;;;;;;;;;;;19.72;48.46;99941.63;2073571;28;19913;-61
2022/01/06 01:01:13;;;;;;;;;;;;;;;19.72;48.42;99944.34;2076147;28;19996;-61
2022/01/06 01:02:14;;;;;;;;;;;;;;;19.71;48.31;99943.50;2073417;28;19920;-61
2022/01/06 01:03:18;;;;;;;;;;;;;;;19.71;48.31;99943.50;2073863;28;20094;-61
2022/01/06 01:04:18;;;;;;;;;;;;;;;19.71;48.30;99943.50;2071843;28;19917;-61
2022/01/06 01:05:19;;;;;;;;;;;;;;;19.69;48.32;99942.78;2073298;28;19913;-61
2022/01/06 01:06:19;;;;;;;;;;;;;;;19.68;48.13;99941.94;2068934;28;20015;-61
2022/01/06 01:07:19;;;;;;;;;;;;;;;19.69;48.29;99940.91;2068865;28;19917;-62
2022/01/06 01:08:20;;;;;;;;;;;;;;;19.70;48.33;99941.78;2068116;28;19932;-61
2022/01/06 01:09:21;;;;;;;;;;;;;;;19.69;48.28;99940.06;2077341;28;19927;-61
2022/01/06 01:10:21;;;;;;;;;;;;;;;19.68;48.24;99941.94;2081728;28;19920;-62
2022/01/06 01:11:21;;;;;;;;;;;;;;;19.69;48.29;99940.06;2076333;28;20732;-61
2022/01/06 01:12:24;;;;;;;;;;;;;;;19.68;48.26;99939.19;2074295;28;19917;-61
2022/01/06 01:13:29;;;;;;;;;;;;;;;19.67;48.30;99939.31;2073663;28;20490;-61
2022/01/06 01:14:32;;;;;;;;;;;;;;;19.68;48.34;99941.09;2074724;28;19994;-62
2022/01/06 01:15:34;;;;;;;;;;;;;;;19.67;48.26;99942.97;2071046;28;20690;-61
2022/01/06 01:16:34;;;;;;;;;;;;;;;19.67;48.31;99948.44;2070063;28;20403;-61
2022/01/06 01:17:35;;;;;;;;;;;;;;;19.67;48.39;99947.50;2069084;28;19913;-61
2022/01/06 01:18:36;;;;;;;;;;;;;;;19.66;48.35;99938.47;2067466;28;19917;-61
2022/01/06 01:19:36;;;;;;;;;;;;;;;19.65;48.49;99944.97;2065145;28;20306;-65
2022/01/06 01:20:36;;;;;;;;;;;;;;;19.66;48.42;99954.88;2074565;28;19939;-64
2022/01/06 01:21:37;;;;;;;;;;;;;;;19.65;48.35;99942.22;2078959;28;19920;-64
2022/01/06 01:22:37;;;;;;;;;;;;;;;19.64;48.38;99943.22;2066647;28;19921;-64
2022/01/06 01:23:37;;;;;;;;;;;;;;;19.65;48.42;99947.69;2066507;28;20083;-64
2022/01/06 01:24:37;;;;;;;;;;;;;;;19.64;48.35;99937.75;2074037;28;19998;-64
2022/01/06 01:25:38;;;;;;;;;;;;;;;19.63;48.33;99943.41;2076611;28;20015;-64
2022/01/06 01:26:38;;;;;;;;;;;;;;;19.63;48.40;99943.41;2074820;28;19943;-64
2022/01/06 01:27:41;;;;;;;;;;;;;;;19.64;48.38;99945.09;2073970;28;19925;-64
2022/01/06 01:28:45;;;;;;;;;;;;;;;19.62;48.46;99950.75;2075383;28;19912;-64
2022/01/06 01:29:57;;;;;;;;;;;;;;;19.60;48.46;99947.31;2073420;28;20341;-66
2022/01/06 01:32:12;;;;;;;;;;;;;;;19.59;48.41;99945.56;2069112;28;19924;-64
2022/01/06 01:33:16;;;;;;;;;;;;;;;19.60;48.46;99957.38;2074155;28;19913;-64
2022/01/06 01:34:24;;;;;;;;;;;;;;;19.59;48.60;99951.03;2073994;28;19971;-66
2022/01/06 01:35:30;;;;;;;;;;;;;;;19.59;48.43;99951.03;2076202;28;19924;-66
2022/01/06 01:36:31;;;;;;;;;;;;;;;19.58;48.48;99957.53;2072714;28;19917;-63
2022/01/06 01:37:31;;;;;;;;;;;;;;;19.59;48.43;99955.66;2075447;28;19921;-65
2022/01/06 01:38:32;;;;;;;;;;;;;;;19.59;48.28;99956.50;2074716;28;20019;-65
2022/01/06 01:39:32;;;;;;;;;;;;;;;19.60;48.30;99962.84;2067614;28;19917;-65
2022/01/06 01:40:32;;;;;;;;;;;;;;;19.57;48.37;99958.53;2066267;28;19913;-62
2022/01/06 01:41:33;;;;;;;;;;;;;;;19.56;48.35;99961.44;2077390;28;20002;-63
2022/01/06 01:42:33;;;;;;;;;;;;;;;19.53;48.40;99968.09;2077583;28;19959;-63
2022/01/06 01:43:34;;;;;;;;;;;;;;;19.51;48.49;99959.19;2076133;28;19915;-63
2022/01/06 01:44:34;;;;;;;;;;;;;;;19.52;48.46;99966.34;2073452;28;19979;-63
2022/01/06 01:45:39;;;;;;;;;;;;;;;19.49;48.47;99972.13;2077438;28;19917;-63
2022/01/06 01:46:46;;;;;;;;;;;;;;;19.47;48.49;99974.16;2083566;28;19912;-63
2022/01/06 01:47:47;;;;;;;;;;;;;;;19.46;48.68;99967.00;2072669;28;19971;-63
2022/01/06 01:49:12;;;;;;;;;;;;;;;19.45;48.75;99976.19;2074643;28;20614;-65
2022/01/06 01:50:18;;;;;;;;;;;;;;;19.44;48.72;99969.88;2083371;28;20383;-63
2022/01/06 01:51:18;;;;;;;;;;;;;;;19.44;49.04;99979.94;2075547;28;19928;-63
2022/01/06 01:52:18;;;;;;;;;;;;;;;19.43;48.94;99983.72;2076230;28;19928;-63
2022/01/06 01:53:19;;;;;;;;;;;;;;;19.42;49.21;99977.34;2078067;28;19935;-63
2022/01/06 01:54:19;;;;;;;;;;;;;;;19.41;49.11;99978.38;2078652;28;19916;-63
2022/01/06 01:55:23;;;;;;;;;;;;;;;19.40;49.16;99978.53;2075200;28;19923;-63
2022/01/06 01:56:24;;;;;;;;;;;;;;;19.40;49.17;99987.63;2075985;28;19923;-63
2022/01/06 01:57:25;;;;;;;;;;;;;;;19.38;49.22;99980.59;2077185;28;20503;-63
2022/01/06 01:58:26;;;;;;;;;;;;;;;19.38;49.19;99988.78;2074324;28;20003;-63
2022/01/06 01:59:26;;;;;;;;;;;;;;;19.36;49.31;99991.66;2069787;28;19921;-63
2022/01/06 02:00:28;;;;;;;;;;;;;;;19.36;49.21;99988.94;2063908;28;19923;-63
2022/01/06 02:01:28;;;;;;;;;;;;;;;19.36;49.17;99982.59;2076507;28;19931;-63
2022/01/06 02:02:28;;;;;;;;;;;;;;;19.35;49.32;99983.59;2077019;28;20383;-63
2022/01/06 02:03:29;;;;;;;;;;;;;;;19.35;49.37;99986.34;2073630;28;19917;-63
2022/01/06 02:04:29;;;;;;;;;;;;;;;19.33;49.43;99980.16;2077135;28;19959;-63
2022/01/06 02:05:29;;;;;;;;;;;;;;;19.34;49.41;99987.34;2075869;28;19920;-62
2022/01/06 02:06:30;;;;;;;;;;;;;;;19.32;49.48;99989.38;2074526;28;20096;-63
2022/01/06 02:07:32;;;;;;;;;;;;;;;19.33;49.48;99996.56;2071755;28;19943;-63
2022/01/06 02:08:32;;;;;;;;;;;;;;;19.30;49.45;99999.59;2073915;28;19934;-63
2022/01/06 02:09:32;;;;;;;;;;;;;;;19.31;49.36;99987.69;2075695;28;19921;-63
2022/01/06 02:10:33;;;;;;;;;;;;;;;19.30;49.52;99994.13;2076905;28;19920;-63
2022/01/06 02:11:33;;;;;;;;;;;;;;;19.31;49.52;99996.72;2075567;28;19921;-63
2022/01/06 02:12:37;;;;;;;;;;;;;;;19.28;49.50;99986.13;2077259;28;19917;-63
2022/01/06 02:13:46;;;;;;;;;;;;;;;19.28;49.53;99992.44;2076414;28;20603;-63
2022/01/06 02:14:46;;;;;;;;;;;;;;;19.28;49.50;99989.69;2075048;28;19927;-63
2022/01/06 02:15:46;;;;;;;;;;;;;;;19.26;49.56;99986.25;2077508;28;19919;-63
2022/01/06 02:16:47;;;;;;;;;;;;;;;19.26;49.58;99993.59;2074892;28;19916;-63
2022/01/06 02:17:47;;;;;;;;;;;;;;;19.27;49.58;99987.09;2075472;28;19999;-63
2022/01/06 02:18:48;;;;;;;;;;;;;;;19.26;49.56;99993.59;2076894;28;20007;-63
2022/01/06 02:19:53;;;;;;;;;;;;;;;19.25;49.53;99987.25;2075362;28;19920;-63
2022/01/06 02:20:54;;;;;;;;;;;;;;;19.24;49.52;99988.28;2075689;28;19944;-63
2022/01/06 02:21:54;;;;;;;;;;;;;;;19.25;49.56;99992.72;2075702;28;19972;-63
2022/01/06 02:22:55;;;;;;;;;;;;;;;19.25;49.68;99992.72;2075349;28;19924;-63
2022/01/06 02:23:55;;;;;;;;;;;;;;;19.24;49.56;99985.53;2076834;28;19943;-63
2022/01/06 02:24:55;;;;;;;;;;;;;;;19.24;49.62;99990.16;2061607;28;19939;-63
2022/01/06 02:25:56;;;;;;;;;;;;;;;19.23;49.61;99983.84;2063290;28;19917;-63
2022/01/06 02:26:56;;;;;;;;;;;;;;;19.23;49.62;99994.78;2075552;28;19979;-63
2022/01/06 02:27:56;;;;;;;;;;;;;;;19.22;49.62;100000.38;2072085;28;19917;-63
2022/01/06 02:28:57;;;;;;;;;;;;;;;19.21;49.48;99987.75;2076141;28;19917;-63
2022/01/06 02:29:57;;;;;;;;;;;;;;;19.21;49.66;99996.78;2071260;28;20410;-63
2022/01/06 02:30:58;;;;;;;;;;;;;;;19.21;49.59;99995.94;2074934;28;20347;-63
2022/01/06 02:31:58;;;;;;;;;;;;;;;19.21;49.69;99991.31;2074709;28;20303;-64
2022/01/06 02:33:03;;;;;;;;;;;;;;;19.20;49.67;99989.59;2070777;28;19917;-62
2022/01/06 02:34:04;;;;;;;;;;;;;;;19.20;49.65;99994.19;2072804;28;19917;-62
2022/01/06 02:35:06;;;;;;;;;;;;;;;19.19;49.66;99987.03;2075206;28;19920;-63
2022/01/06 02:36:06;;;;;;;;;;;;;;;19.18;49.71;99988.91;2071935;28;19923;-62
2022/01/06 02:37:07;;;;;;;;;;;;;;;19.18;49.65;99983.44;2076107;28;20019;-62
2022/01/06 02:38:08;;;;;;;;;;;;;;;19.18;49.75;99991.63;2071976;28;20588;-63
2022/01/06 02:39:09;;;;;;;;;;;;;;;19.18;49.71;99985.28;2074508;28;19966;-63
2022/01/06 02:40:13;;;;;;;;;;;;;;;19.17;49.74;99984.44;2072288;28;19920;-63
2022/01/06 02:41:13;;;;;;;;;;;;;;;19.17;49.67;99994.50;2075499;28;20454;-62
2022/01/06 02:42:13;;;;;;;;;;;;;;;19.17;49.77;99992.63;2074346;28;20868;-63
2022/01/06 02:43:17;;;;;;;;;;;;;;;19.17;49.84;99999.97;2073094;28;20111;-62
2022/01/06 02:44:19;;;;;;;;;;;;;;;19.16;49.84;99993.66;2074220;28;19963;-63
2022/01/06 02:45:20;;;;;;;;;;;;;;;19.17;49.82;99999.97;2071514;28;20395;-63
2022/01/06 02:46:20;;;;;;;;;;;;;;;19.16;49.83;99996.38;2070210;28;20437;-63
2022/01/06 02:47:21;;;;;;;;;;;;;;;19.17;49.76;99994.50;2074752;28;20299;-62
2022/01/06 02:48:21;;;;;;;;;;;;;;;19.18;49.72;99996.22;2072242;28;20304;-63
2022/01/06 02:49:22;;;;;;;;;;;;;;;19.17;49.68;99995.38;2076320;28;19909;-63
2022/01/06 02:50:23;;;;;;;;;;;;;;;19.19;49.69;99998.81;2075180;28;19915;-63
2022/01/06 02:51:23;;;;;;;;;;;;;;;19.20;49.63;99994.19;2075964;28;19920;-63
2022/01/06 02:52:24;;;;;;;;;;;;;;;19.21;49.63;99991.31;2076545;28;19952;-63
2022/01/06 02:53:24;;;;;;;;;;;;;;;19.23;49.64;99994.78;2076498;28;19924;-63
2022/01/06 02:54:24;;;;;;;;;;;;;;;19.25;49.57;99998.19;2075180;28;19925;-63
2022/01/06 02:55:25;;;;;;;;;;;;;;;19.26;49.46;99999.91;2073004;28;19920;-65
2022/01/06 02:56:25;;;;;;;;;;;;;;;19.28;49.59;99997.03;2077421;28;20012;-63
2022/01/06 02:57:25;;;;;;;;;;;;;;;19.31;49.44;99998.59;2077050;28;19921;-63
2022/01/06 02:58:26;;;;;;;;;;;;;;;19.33;49.38;99993.81;2065741;28;20031;-63
2022/01/06 02:59:26;;;;;;;;;;;;;;;19.35;49.39;100000.00;2065255;28;20004;-63
2022/01/06 03:00:27;;;;;;;;;;;;;;;19.36;49.37;99999.84;2077897;28;19971;-63
2022/01/06 03:01:27;;;;;;;;;;;;;;;19.38;49.37;100000.56;2082304;28;19920;-63
2022/01/06 03:02:27;;;;;;;;;;;;;;;19.40;49.26;99994.94;2082748;28;19916;-63
2022/01/06 03:03:28;;;;;;;;;;;;;;;19.41;49.27;99997.53;2074855;28;19990;-63
2022/01/06 03:04:28;;;;;;;;;;;;;;;19.42;49.17;99996.50;2075028;28;20051;-63
2022/01/06 03:05:28;;;;;;;;;;;;;;;19.45;49.22;99995.31;2075824;28;19916;-63
2022/01/06 03:06:29;;;;;;;;;;;;;;;19.47;49.18;99996.03;2062372;28;20667;-63
2022/01/06 03:07:29;;;;;;;;;;;;;;;19.48;49.09;99993.16;2069757;28;19962;-64
2022/01/06 03:08:29;;;;;;;;;;;;;;;19.50;49.07;99990.28;2075862;28;19970;-63
2022/01/06 03:09:38;;;;;;;;;;;;;;;19.52;49.03;99981.91;2074740;28;19920;-63
2022/01/06 03:10:42;;;;;;;;;;;;;;;19.52;48.98;99993.69;2074008;28;19948;-63
2022/01/06 03:11:44;;;;;;;;;;;;;;;19.53;48.90;99986.38;2075214;28;20130;-63
2022/01/06 03:12:45;;;;;;;;;;;;;;;19.56;48.76;99988.78;2074736;28;19916;-63
2022/01/06 03:13:45;;;;;;;;;;;;;;;19.57;48.92;99998.69;2073826;28;20411;-63
2022/01/06 03:14:46;;;;;;;;;;;;;;;19.59;48.84;99994.78;2075801;28;20349;-63
2022/01/06 03:15:46;;;;;;;;;;;;;;;19.59;48.76;99997.53;2075477;28;20281;-63
2022/01/06 03:16:46;;;;;;;;;;;;;;;19.62;48.76;99994.50;2074484;28;19969;-63
2022/01/06 03:17:51;;;;;;;;;;;;;;;19.63;48.62;99993.47;2068499;28;20013;-63
2022/01/06 03:18:51;;;;;;;;;;;;;;;19.63;48.63;99985.28;2075636;28;19920;-63
2022/01/06 03:19:51;;;;;;;;;;;;;;;19.65;48.60;99999.66;2075633;28;19905;-63
2022/01/06 03:20:52;;;;;;;;;;;;;;;19.65;48.60;99991.44;2070727;28;19925;-63
2022/01/06 03:21:52;;;;;;;;;;;;;;;19.69;48.55;99990.13;2069439;28;20010;-63
2022/01/06 03:22:53;;;;;;;;;;;;;;;19.69;48.63;99987.41;2069072;28;19909;-63
2022/01/06 03:23:54;;;;;;;;;;;;;;;19.69;48.50;99990.13;2069313;28;20343;-63
2022/01/06 03:24:54;;;;;;;;;;;;;;;19.71;48.54;99987.25;2066637;28;19909;-63
2022/01/06 03:25:54;;;;;;;;;;;;;;;19.72;48.49;99988.09;2070592;28;19915;-63
2022/01/06 03:26:55;;;;;;;;;;;;;;;19.74;48.52;99992.41;2077798;28;19943;-63
2022/01/06 03:27:55;;;;;;;;;;;;;;;19.74;48.40;99992.41;2075617;28;20437;-63
2022/01/06 03:28:55;;;;;;;;;;;;;;;19.76;48.47;99992.25;2073274;28;19924;-63
2022/01/06 03:29:55;;;;;;;;;;;;;;;19.77;48.34;99993.97;2073270;28;19989;-63
2022/01/06 03:30:56;;;;;;;;;;;;;;;19.77;48.39;99997.59;2072282;28;19921;-62
2022/01/06 03:31:58;;;;;;;;;;;;;;;19.79;48.21;99997.41;2070589;28;20019;-63
2022/01/06 03:32:58;;;;;;;;;;;;;;;19.79;48.23;99990.06;2069316;28;19983;-65
2022/01/06 03:33:58;;;;;;;;;;;;;;;19.80;48.32;99999.13;2070650;28;19917;-63
2022/01/06 03:34:59;;;;;;;;;;;;;;;19.80;48.37;99990.94;2069130;28;20938;-64
2022/01/06 03:35:59;;;;;;;;;;;;;;;19.80;48.29;99985.47;2066560;28;20012;-63
2022/01/06 03:37:01;;;;;;;;;;;;;;;19.80;48.24;99990.94;2073812;28;20055;-63
2022/01/06 03:38:02;;;;;;;;;;;;;;;19.82;48.34;99984.28;2074634;28;20157;-63
2022/01/06 03:39:02;;;;;;;;;;;;;;;19.83;48.13;99985.16;2075145;28;19920;-63
2022/01/06 03:40:04;;;;;;;;;;;;;;;19.83;48.14;99987.88;2076113;28;20125;-63
2022/01/06 03:41:05;;;;;;;;;;;;;;;19.83;48.14;99987.88;2074844;28;19917;-63
2022/01/06 03:42:05;;;;;;;;;;;;;;;19.85;48.21;99983.13;2074336;28;19916;-63
2022/01/06 03:43:07;;;;;;;;;;;;;;;19.85;48.21;99988.59;2075190;28;19916;-63
2022/01/06 03:44:07;;;;;;;;;;;;;;;19.85;48.27;99989.44;2075500;28;20310;-63
2022/01/06 03:45:09;;;;;;;;;;;;;;;19.85;48.11;99994.06;2073908;28;19925;-63
2022/01/06 03:46:09;;;;;;;;;;;;;;;19.87;48.19;99997.50;2071100;28;19923;-63
2022/01/06 03:47:10;;;;;;;;;;;;;;;19.85;48.12;99996.78;2076487;28;19916;-63
2022/01/06 03:48:10;;;;;;;;;;;;;;;19.86;48.17;99995.75;2076192;28;19992;-62
2022/01/06 03:49:10;;;;;;;;;;;;;;;19.86;48.07;99995.75;2074445;28;19916;-60
2022/01/06 03:50:12;;;;;;;;;;;;;;;19.86;48.16;100001.22;2075358;28;19963;-60
2022/01/06 03:51:12;;;;;;;;;;;;;;;19.85;48.08;100002.25;2073912;28;20033;-60
2022/01/06 03:52:13;;;;;;;;;;;;;;;19.85;48.10;100005.00;2076710;28;19928;-60
2022/01/06 03:53:13;;;;;;;;;;;;;;;19.87;48.02;100002.97;2074646;28;20241;-60
2022/01/06 03:54:13;;;;;;;;;;;;;;;19.85;48.08;100007.72;2074149;28;19981;-61
2022/01/06 03:55:15;;;;;;;;;;;;;;;19.86;48.00;100006.69;2075899;28;20391;-60
2022/01/06 03:56:15;;;;;;;;;;;;;;;19.85;48.09;100008.59;2073868;28;19928;-60
2022/01/06 03:57:15;;;;;;;;;;;;;;;19.84;48.19;100009.63;2076048;28;19917;-60
2022/01/06 03:58:16;;;;;;;;;;;;;;;19.85;48.15;100007.72;2073824;28;20205;-59
2022/01/06 03:59:16;;;;;;;;;;;;;;;19.85;48.05;100005.00;2075120;28;19924;-60
2022/01/06 04:00:18;;;;;;;;;;;;;;;19.84;48.01;100009.63;2075094;28;19924;-60
2022/01/06 04:01:18;;;;;;;;;;;;;;;19.84;48.20;100012.34;2074647;28;19966;-60
2022/01/06 04:02:19;;;;;;;;;;;;;;;19.83;48.20;100012.50;2075665;28;19979;-60
2022/01/06 04:03:19;;;;;;;;;;;;;;;19.83;48.31;100018.81;2075034;28;19944;-60
2022/01/06 04:04:19;;;;;;;;;;;;;;;19.83;48.25;100017.97;2074151;28;19921;-60
2022/01/06 04:05:20;;;;;;;;;;;;;;;19.82;48.33;100025.31;2074872;28;19979;-60
2022/01/06 04:06:20;;;;;;;;;;;;;;;19.83;48.26;100017.97;2075177;28;19921;-60
2022/01/06 04:07:20;;;;;;;;;;;;;;;19.82;48.17;100017.13;2076294;28;20020;-60
2022/01/06 04:08:21;;;;;;;;;;;;;;;19.83;48.17;100028.91;2071941;28;19909;-60
2022/01/06 04:09:21;;;;;;;;;;;;;;;19.82;48.20;100021.69;2077889;28;19995;-60
2022/01/06 04:10:21;;;;;;;;;;;;;;;19.82;48.13;100016.22;2074813;28;20447;-60
2022/01/06 04:11:22;;;;;;;;;;;;;;;19.82;48.28;100021.69;2069694;28;20378;-60
2022/01/06 04:12:22;;;;;;;;;;;;;;;19.81;48.23;100029.06;2075117;28;20387;-60
2022/01/06 04:13:24;;;;;;;;;;;;;;;19.81;48.22;100031.78;2071981;28;19913;-60
2022/01/06 04:14:24;;;;;;;;;;;;;;;19.81;48.32;100031.78;2065853;28;19913;-60
2022/01/06 04:15:26;;;;;;;;;;;;;;;19.81;48.27;100037.25;2063475;28;19917;-59
2022/01/06 04:16:28;;;;;;;;;;;;;;;19.81;48.23;100033.66;2073527;28;20891;-60
2022/01/06 04:17:28;;;;;;;;;;;;;;;19.80;48.40;100029.22;2075342;28;20165;-61
2022/01/06 04:18:28;;;;;;;;;;;;;;;19.80;48.41;100035.56;2071063;28;19917;-60
2022/01/06 04:19:29;;;;;;;;;;;;;;;19.80;48.31;100031.97;2075761;28;19916;-60
2022/01/06 04:20:31;;;;;;;;;;;;;;;19.79;48.16;100022.03;2074341;28;21336;-60
2022/01/06 04:21:31;;;;;;;;;;;;;;;19.79;48.33;100028.34;2072689;28;19923;-63
2022/01/06 04:22:31;;;;;;;;;;;;;;;19.80;48.28;100029.22;2075026;28;19940;-60
2022/01/06 04:23:32;;;;;;;;;;;;;;;19.79;48.34;100032.97;2073413;28;19920;-60
2022/01/06 04:24:33;;;;;;;;;;;;;;;19.77;48.40;100030.41;2075007;28;19928;-60
2022/01/06 04:25:33;;;;;;;;;;;;;;;19.79;48.39;100032.97;2076654;28;19917;-60
2022/01/06 04:26:33;;;;;;;;;;;;;;;19.78;48.42;100031.25;2075674;28;19919;-60
2022/01/06 04:27:34;;;;;;;;;;;;;;;19.78;48.41;100037.56;2074805;28;20040;-59
2022/01/06 04:28:36;;;;;;;;;;;;;;;19.79;48.44;100032.97;2075390;28;20002;-60
2022/01/06 04:29:36;;;;;;;;;;;;;;;19.78;48.41;100026.63;2066742;28;19921;-60
2022/01/06 04:30:36;;;;;;;;;;;;;;;19.77;48.38;100029.50;2064155;28;20383;-59
2022/01/06 04:31:38;;;;;;;;;;;;;;;19.77;48.29;100032.25;2074939;28;19921;-60
2022/01/06 04:32:38;;;;;;;;;;;;;;;19.76;48.41;100027.81;2074982;28;19923;-60
2022/01/06 04:33:39;;;;;;;;;;;;;;;19.76;48.36;100033.28;2073467;28;19924;-60
2022/01/06 04:34:39;;;;;;;;;;;;;;;19.75;48.40;100035.16;2076609;28;19916;-60
2022/01/06 04:35:39;;;;;;;;;;;;;;;19.75;48.36;100039.78;2073471;28;20469;-60
2022/01/06 04:36:46;;;;;;;;;;;;;;;19.74;48.32;100032.56;2075952;28;19921;-60
2022/01/06 04:37:47;;;;;;;;;;;;;;;19.74;48.34;100047.09;2066044;28;19917;-60
2022/01/06 04:38:47;;;;;;;;;;;;;;;19.74;48.44;100040.78;2066137;28;19996;-59
2022/01/06 04:39:47;;;;;;;;;;;;;;;19.74;48.48;100048.97;2076202;28;19923;-65
2022/01/06 04:40:48;;;;;;;;;;;;;;;19.73;48.47;100047.28;2072163;28;20067;-65
2022/01/06 04:41:48;;;;;;;;;;;;;;;19.73;48.47;100050.88;2076060;28;19917;-65
2022/01/06 04:42:48;;;;;;;;;;;;;;;19.73;48.50;100055.47;2074995;28;20027;-65
2022/01/06 04:43:49;;;;;;;;;;;;;;;19.73;48.43;100055.47;2074709;28;20784;-65
2022/01/06 04:44:49;;;;;;;;;;;;;;;19.72;48.42;100054.63;2076543;28;19925;-64
2022/01/06 04:45:49;;;;;;;;;;;;;;;19.69;48.47;100044.81;2074261;28;19920;-65
2022/01/06 04:46:49;;;;;;;;;;;;;;;19.69;48.44;100050.28;2076183;28;19927;-65
2022/01/06 04:47:50;;;;;;;;;;;;;;;19.69;48.50;100055.75;2063467;28;19960;-65
2022/01/06 04:48:50;;;;;;;;;;;;;;;19.68;48.56;100051.31;2065648;28;20060;-65
2022/01/06 04:49:50;;;;;;;;;;;;;;;19.68;48.50;100048.59;2075023;28;19951;-65
2022/01/06 04:50:51;;;;;;;;;;;;;;;19.68;48.53;100045.84;2074959;28;19978;-65
2022/01/06 04:51:51;;;;;;;;;;;;;;;19.68;48.52;100048.59;2076215;28;19998;-65
2022/01/06 04:52:51;;;;;;;;;;;;;;;19.66;48.54;100050.56;2074524;28;19913;-65
2022/01/06 04:53:52;;;;;;;;;;;;;;;19.67;48.59;100056.91;2074044;28;19924;-65
2022/01/06 04:54:52;;;;;;;;;;;;;;;19.67;48.58;100051.44;2075085;28;20421;-65
2022/01/06 04:55:54;;;;;;;;;;;;;;;19.66;48.63;100061.50;2075083;28;19909;-65
2022/01/06 04:56:54;;;;;;;;;;;;;;;19.65;48.59;100059.81;2075670;28;19917;-65
2022/01/06 04:57:54;;;;;;;;;;;;;;;19.65;48.59;100065.28;2079074;28;19927;-64
2022/01/06 04:58:55;;;;;;;;;;;;;;;19.66;48.62;100058.78;2072913;28;19924;-64
2022/01/06 04:59:55;;;;;;;;;;;;;;;19.66;48.64;100067.00;2076166;28;19912;-64
2022/01/06 05:00:55;;;;;;;;;;;;;;;19.66;48.51;100067.00;2075266;28;19994;-65
2022/01/06 05:01:56;;;;;;;;;;;;;;;19.65;48.74;100065.28;2078324;28;20722;-65
2022/01/06 05:02:56;;;;;;;;;;;;;;;19.65;48.53;100075.38;2075409;28;21376;-65
2022/01/06 05:03:56;;;;;;;;;;;;;;;19.64;48.64;100074.47;2066481;28;20598;-65
2022/01/06 05:04:57;;;;;;;;;;;;;;;19.65;48.64;100078.09;2068105;28;20654;-65
2022/01/06 05:05:57;;;;;;;;;;;;;;;19.64;48.66;100074.47;2076416;28;19913;-65
2022/01/06 05:06:57;;;;;;;;;;;;;;;19.64;48.64;100079.94;2074922;28;19916;-65
2022/01/06 05:07:58;;;;;;;;;;;;;;;19.63;48.57;100083.72;2075849;28;19909;-65
2022/01/06 05:08:58;;;;;;;;;;;;;;;19.63;48.68;100080.13;2077020;28;20941;-65
2022/01/06 05:09:58;;;;;;;;;;;;;;;19.64;48.69;100085.41;2076320;28;19951;-65
2022/01/06 05:10:59;;;;;;;;;;;;;;;19.62;48.60;100087.47;2076207;28;20019;-65
2022/01/06 05:11:59;;;;;;;;;;;;;;;19.62;48.67;100087.47;2074047;28;19914;-65
2022/01/06 05:13:00;;;;;;;;;;;;;;;19.61;48.60;100077.53;2076650;28;19917;-65
2022/01/06 05:14:00;;;;;;;;;;;;;;;19.61;48.61;100085.72;2076454;28;19917;-64
2022/01/06 05:15:00;;;;;;;;;;;;;;;19.62;48.59;100081.13;2076952;28;19927;-65
2022/01/06 05:16:00;;;;;;;;;;;;;;;19.61;48.67;100080.25;2076515;28;19959;-65
2022/01/06 05:17:01;;;;;;;;;;;;;;;19.60;48.70;100092.22;2076716;28;20388;-65
2022/01/06 05:18:02;;;;;;;;;;;;;;;19.60;48.70;100085.88;2077078;28;19921;-65
2022/01/06 05:19:02;;;;;;;;;;;;;;;19.59;48.72;100085.03;2072148;28;19924;-66
2022/01/06 05:20:06;;;;;;;;;;;;;;;19.59;48.64;100081.44;2077162;28;19963;-65
2022/01/06 05:21:06;;;;;;;;;;;;;;;19.57;48.81;100078.84;2078812;28;20000;-65
2022/01/06 05:22:07;;;;;;;;;;;;;;;19.57;48.69;100088.91;2074832;28;19920;-65
2022/01/06 05:23:08;;;;;;;;;;;;;;;19.57;48.89;100088.91;2077028;28;19927;-65
2022/01/06 05:24:16;;;;;;;;;;;;;;;19.56;48.90;100085.34;2078428;28;20393;-65
2022/01/06 05:25:20;;;;;;;;;;;;;;;19.55;48.74;100089.09;2067953;28;20392;-66
2022/01/06 05:26:21;;;;;;;;;;;;;;;19.56;48.72;100089.94;2071548;28;20503;-65